createdAt,value
2023-04-21T00:01:40.165Z,16.60
2023-04-21T00:04:07.365Z,18.53
2023-04-21T00:06:34.451Z,15.20
2023-04-21T00:09:01.275Z,18.63
2023-04-21T00:11:28.183Z,21.73
2023-04-21T00:13:56.210Z,22.20
2023-04-21T00:16:23.116Z,22.93
2023-04-21T00:18:49.946Z,17.57
2023-04-21T00:21:17.746Z,20.37
2023-04-21T00:23:44.544Z,16.63
2023-04-21T00:26:11.614Z,20.20
2023-04-21T00:28:41.186Z,19.17
2023-04-21T00:31:07.998Z,20.10
2023-04-21T00:33:34.859Z,20.37
2023-04-21T00:36:01.656Z,17.97
2023-04-21T00:38:28.503Z,20.60
2023-04-21T00:40:55.618Z,18.43
2023-04-21T00:43:22.607Z,21.47
2023-04-21T00:45:49.399Z,22.10
2023-04-21T00:48:17.511Z,20.40
2023-04-21T00:50:45.167Z,21.37
2023-04-21T00:53:14.484Z,21.63
2023-04-21T00:55:41.652Z,17.93
2023-04-21T00:58:09.003Z,20.53
2023-04-21T01:00:36.558Z,18.00
2023-04-21T01:03:06.012Z,21.17
2023-04-21T01:05:33.076Z,21.70
2023-04-21T01:08:01.786Z,21.33
2023-04-21T01:10:28.679Z,18.83
2023-04-21T01:12:55.467Z,17.63
2023-04-21T01:15:22.437Z,16.73
2023-04-21T01:17:49.795Z,19.73
2023-04-21T01:20:16.986Z,15.83
2023-04-21T01:22:45.069Z,13.03
2023-04-21T01:25:11.978Z,11.90
2023-04-21T01:27:38.941Z,12.70
2023-04-21T01:30:07.578Z,11.33
2023-04-21T01:32:35.680Z,13.80
2023-04-21T01:35:02.701Z,13.10
2023-04-21T01:37:32.024Z,14.37
2023-04-21T01:40:01.665Z,13.10
2023-04-21T01:42:29.892Z,11.87
2023-04-21T01:44:59.356Z,10.10
2023-04-21T01:47:26.458Z,8.60
2023-04-21T01:49:53.739Z,11.40
2023-04-21T01:52:20.923Z,9.00
2023-04-21T01:54:47.866Z,12.00
2023-04-21T01:57:15.323Z,8.40
2023-04-21T01:59:42.616Z,11.30
2023-04-21T02:02:10.079Z,11.20
2023-04-21T02:04:37.199Z,8.97
2023-04-21T02:07:04.119Z,9.50
2023-04-21T02:09:33.053Z,7.53
2023-04-21T02:12:00.379Z,9.53
2023-04-21T02:14:27.373Z,7.43
2023-04-21T02:16:56.077Z,9.37
2023-04-21T02:19:23.283Z,7.00
2023-04-21T02:21:50.430Z,6.53
2023-04-21T02:24:17.289Z,7.50
2023-04-21T02:26:45.869Z,6.00
2023-04-21T02:29:12.745Z,6.07
2023-04-21T02:31:54.336Z,6.83
2023-04-21T02:34:26.331Z,8.43
2023-04-21T02:36:53.237Z,8.23
2023-04-21T02:39:20.315Z,8.17
2023-04-21T02:41:47.241Z,7.33
2023-04-21T02:44:14.117Z,6.83
2023-04-21T02:46:41.843Z,8.60
2023-04-21T02:49:09.748Z,6.50
2023-04-21T02:51:36.963Z,8.80
2023-04-21T02:54:03.825Z,7.00
2023-04-21T02:56:31.745Z,7.70
2023-04-21T02:58:58.556Z,6.80
2023-04-21T03:01:25.527Z,8.70
2023-04-21T03:03:52.673Z,8.00
2023-04-21T03:06:19.618Z,8.67
2023-04-21T03:08:46.557Z,8.87
2023-04-21T03:11:13.539Z,9.83
2023-04-21T03:13:40.440Z,9.53
2023-04-21T03:16:07.520Z,11.03
2023-04-21T03:18:37.459Z,13.37
2023-04-21T03:21:05.176Z,12.60
2023-04-21T03:23:33.093Z,16.13
2023-04-21T03:25:59.915Z,16.30
2023-04-21T03:28:26.769Z,16.17
2023-04-21T03:30:53.572Z,15.50
2023-04-21T03:33:20.532Z,18.10
2023-04-21T03:35:47.391Z,15.17
2023-04-21T03:38:14.233Z,16.23
2023-04-21T03:40:41.016Z,14.90
2023-04-21T03:43:07.888Z,13.70
2023-04-21T03:45:37.901Z,12.43
2023-04-21T03:48:05.254Z,13.33
2023-04-21T03:50:32.219Z,11.00
2023-04-21T03:52:59.085Z,14.63
2023-04-21T03:55:25.977Z,11.63
2023-04-21T03:57:52.730Z,13.37
2023-04-21T04:00:19.679Z,12.10
2023-04-21T04:02:46.705Z,12.50
2023-04-21T04:05:13.704Z,13.60
2023-04-21T04:07:40.762Z,12.80
2023-04-21T04:10:07.683Z,11.50
2023-04-21T04:12:34.468Z,8.90
2023-04-21T04:15:01.531Z,10.13
2023-04-21T04:17:28.437Z,8.77
2023-04-21T04:19:55.203Z,5.87
2023-04-21T04:22:22.159Z,9.37
2023-04-21T04:24:53.188Z,6.77
2023-04-21T04:27:21.459Z,8.40
2023-04-21T04:29:49.345Z,7.07
2023-04-21T04:32:16.434Z,11.23
2023-04-21T04:34:43.278Z,10.90
2023-04-21T04:37:11.191Z,13.90
2023-04-21T04:39:38.192Z,8.90
2023-04-21T04:42:11.737Z,14.87
2023-04-21T04:44:38.666Z,10.03
2023-04-21T04:47:06.146Z,13.30
2023-04-21T04:49:33.293Z,10.30
2023-04-21T04:52:00.168Z,9.50
2023-04-21T04:54:28.936Z,10.20
2023-04-21T04:56:56.813Z,10.53
2023-04-21T04:59:23.619Z,11.50
2023-04-21T05:04:31.220Z,9.47
2023-04-21T05:06:58.093Z,9.67
2023-04-21T05:09:25.883Z,9.47
2023-04-21T05:11:52.962Z,8.70
2023-04-21T05:14:20.172Z,9.03
2023-04-21T05:16:47.140Z,12.37
2023-04-21T05:19:14.896Z,9.93
2023-04-21T05:21:43.070Z,9.27
2023-04-21T05:24:09.893Z,11.63
2023-04-21T05:26:36.654Z,10.37
2023-04-21T05:29:03.506Z,10.40
2023-04-21T05:31:30.318Z,11.73
2023-04-21T05:33:57.101Z,13.30
2023-04-21T05:36:25.039Z,13.20
2023-04-21T05:38:52.550Z,10.10
2023-04-21T05:41:19.405Z,11.37
2023-04-21T05:43:47.550Z,12.37
2023-04-21T05:46:14.723Z,11.77
2023-04-21T05:48:41.691Z,13.63
2023-04-21T05:51:12.671Z,16.47
2023-04-21T05:53:41.153Z,16.47
2023-04-21T05:56:12.125Z,15.23
2023-04-21T05:58:39.001Z,15.73
2023-04-21T06:01:09.171Z,15.50
2023-04-21T06:03:36.137Z,16.77
2023-04-21T06:06:05.858Z,20.27
2023-04-21T06:08:32.931Z,19.30
2023-04-21T06:10:59.754Z,24.50
2023-04-21T06:13:27.839Z,25.80
2023-04-21T06:15:55.385Z,26.03
2023-04-21T06:18:22.692Z,27.17
2023-04-21T06:20:53.874Z,28.83
2023-04-21T06:23:21.220Z,29.57
2023-04-21T06:25:58.712Z,32.80
2023-04-21T06:28:25.564Z,30.40
2023-04-21T06:30:52.429Z,33.07
2023-04-21T06:33:19.257Z,32.53
2023-04-21T06:35:46.268Z,29.73
2023-04-21T06:38:13.054Z,31.53
2023-04-21T06:40:39.927Z,28.70
2023-04-21T06:43:06.851Z,30.63
2023-04-21T06:45:33.627Z,28.40
2023-04-21T06:48:00.496Z,28.73
2023-04-21T06:50:27.389Z,30.80
2023-04-21T06:52:54.227Z,28.30
2023-04-21T06:55:21.067Z,29.37
2023-04-21T06:57:47.867Z,30.50
2023-04-21T07:00:15.153Z,28.53
2023-04-21T07:02:42.332Z,30.43
2023-04-21T07:05:09.400Z,30.37
2023-04-21T07:07:36.164Z,30.60
2023-04-21T07:10:02.983Z,30.17
2023-04-21T07:12:29.785Z,29.77
2023-04-21T07:14:56.561Z,31.67
2023-04-21T07:17:23.491Z,31.57
2023-04-21T07:19:50.361Z,28.43
2023-04-21T07:22:17.185Z,26.63
2023-04-21T07:24:44.187Z,28.07
2023-04-21T07:27:11.061Z,27.60
2023-04-21T07:29:37.887Z,29.37
2023-04-21T07:32:04.755Z,28.90
2023-04-21T07:34:31.580Z,28.90
2023-04-21T07:36:58.355Z,29.83
2023-04-21T07:39:25.198Z,28.27
2023-04-21T07:41:52.010Z,29.67
2023-04-21T07:44:18.846Z,27.30
2023-04-21T07:46:46.465Z,30.23
2023-04-21T07:49:13.285Z,32.67
2023-04-21T07:51:40.281Z,29.73
2023-04-21T07:54:07.173Z,30.30
2023-04-21T07:56:33.975Z,30.97
2023-04-21T07:59:00.743Z,29.80
2023-04-21T08:01:27.588Z,31.40
2023-04-21T08:03:54.453Z,31.93
2023-04-21T08:06:21.620Z,30.43
2023-04-21T08:08:48.488Z,32.37
2023-04-21T08:11:15.373Z,29.43
2023-04-21T08:13:42.144Z,30.40
2023-04-21T08:16:08.974Z,31.33
2023-04-21T08:18:35.943Z,28.53
2023-04-21T08:21:02.754Z,28.80
2023-04-21T08:23:32.547Z,26.93
2023-04-21T08:25:59.428Z,30.07
2023-04-21T08:28:26.243Z,29.20
2023-04-21T08:30:53.016Z,30.83
2023-04-21T08:33:19.951Z,28.67
2023-04-21T08:36:01.352Z,32.37
2023-04-21T08:38:31.021Z,30.87
2023-04-21T08:40:59.939Z,29.90
2023-04-21T08:43:28.593Z,32.73
2023-04-21T08:45:56.109Z,30.10
2023-04-21T08:48:23.876Z,32.63
2023-04-21T08:50:52.205Z,30.90
2023-04-21T08:53:19.547Z,34.80
2023-04-21T08:55:59.545Z,35.80
2023-04-21T08:58:36.583Z,29.93
2023-04-21T09:01:03.381Z,30.20
2023-04-21T09:06:05.494Z,28.50
2023-04-21T09:08:33.749Z,30.93
2023-04-21T09:11:04.218Z,29.33
2023-04-21T09:13:36.588Z,27.83
2023-04-21T09:16:08.217Z,29.37
2023-04-21T09:18:40.185Z,27.83
2023-04-21T09:21:15.548Z,28.43
2023-04-21T09:23:50.175Z,26.73
2023-04-21T09:26:18.862Z,28.07
2023-04-21T09:28:47.673Z,26.03
2023-04-21T09:31:19.926Z,27.53
2023-04-21T09:36:24.755Z,25.10
2023-04-21T09:39:08.990Z,25.60
2023-04-21T09:41:41.750Z,23.83
2023-04-21T09:44:08.628Z,24.27
2023-04-21T09:46:37.143Z,24.63
2023-04-21T09:49:05.787Z,24.13
2023-04-21T09:54:27.678Z,26.33
2023-04-21T09:57:02.365Z,25.40
2023-04-21T09:59:37.190Z,23.70
2023-04-21T10:02:06.307Z,24.50
2023-04-21T10:04:35.279Z,23.37
2023-04-21T10:07:02.914Z,23.07
2023-04-21T10:09:43.378Z,23.67
2023-04-21T10:12:11.407Z,21.77
2023-04-21T10:14:38.279Z,23.40
2023-04-21T10:17:10.381Z,24.37
2023-04-21T10:19:47.520Z,23.13
2023-04-21T10:22:14.437Z,21.63
2023-04-21T10:24:47.277Z,21.97
2023-04-21T10:27:34.678Z,23.37
2023-04-21T10:30:02.050Z,19.57
2023-04-21T10:32:47.138Z,20.60
2023-04-21T10:35:23.157Z,21.70
2023-04-21T10:37:53.795Z,21.77
2023-04-21T10:40:42.529Z,22.80
2023-04-21T10:43:48.420Z,21.87
2023-04-21T10:46:40.492Z,20.07
2023-04-21T10:49:10.003Z,19.20
2023-04-21T10:51:59.830Z,20.50
2023-04-21T10:54:28.369Z,20.83
2023-04-21T10:56:56.447Z,18.57
2023-04-21T10:59:24.445Z,20.10
2023-04-21T11:01:52.148Z,19.90
2023-04-21T11:04:21.395Z,18.63
2023-04-21T11:07:19.469Z,20.80
2023-04-21T11:09:48.289Z,19.17
2023-04-21T11:12:18.275Z,18.10
2023-04-21T11:14:48.186Z,20.30
2023-04-21T11:17:19.978Z,16.50
2023-04-21T11:19:48.352Z,20.90
2023-04-21T11:22:17.619Z,19.03
2023-04-21T11:24:46.278Z,19.07
2023-04-21T11:27:14.653Z,19.33
2023-04-21T11:29:42.466Z,21.00
2023-04-21T11:32:09.756Z,18.37
2023-04-21T11:34:39.748Z,16.77
2023-04-21T11:37:14.182Z,19.47
2023-04-21T11:39:42.147Z,19.27
2023-04-21T11:42:09.587Z,18.53
2023-04-21T11:44:37.709Z,18.30
2023-04-21T11:47:21.154Z,17.97
2023-04-21T11:49:58.219Z,18.47
2023-04-21T11:52:25.086Z,17.77
2023-04-21T11:54:59.438Z,17.80
2023-04-21T11:57:27.773Z,17.50
2023-04-21T11:59:58.006Z,19.40
2023-04-21T12:02:27.288Z,19.17
2023-04-21T12:05:06.967Z,19.30
2023-04-21T12:07:39.152Z,21.33
2023-04-21T12:10:13.492Z,19.30
2023-04-21T12:12:44.328Z,18.07
2023-04-21T12:15:12.990Z,17.73
2023-04-21T12:17:51.246Z,19.83
2023-04-21T12:20:19.923Z,18.40
2023-04-21T12:22:47.804Z,19.20
2023-04-21T12:25:14.942Z,16.80
2023-04-21T12:27:52.472Z,18.40
2023-04-21T12:30:20.506Z,15.00
2023-04-21T12:32:52.271Z,15.63
2023-04-21T12:35:19.476Z,16.73
2023-04-21T12:37:46.792Z,15.07
2023-04-21T12:40:13.717Z,14.47
2023-04-21T12:42:40.771Z,14.97
2023-04-21T12:45:08.129Z,13.73
2023-04-21T12:47:37.143Z,14.00
2023-04-21T12:50:04.577Z,13.93
2023-04-21T12:52:31.537Z,13.60
2023-04-21T12:54:58.397Z,14.37
2023-04-21T12:57:25.532Z,13.20
2023-04-21T12:59:52.480Z,15.77
2023-04-21T13:02:19.614Z,16.07
2023-04-21T13:04:46.709Z,16.57
2023-04-21T13:07:14.824Z,15.83
2023-04-21T13:09:41.993Z,14.13
2023-04-21T13:12:08.914Z,13.97
2023-04-21T13:14:35.829Z,13.73
2023-04-21T13:17:02.785Z,15.87
2023-04-21T13:19:30.328Z,15.03
2023-04-21T13:21:57.399Z,14.33
2023-04-21T13:24:25.918Z,14.50
2023-04-21T13:26:52.913Z,13.50
2023-04-21T13:29:19.865Z,11.60
2023-04-21T13:31:46.736Z,12.40
2023-04-21T13:34:13.723Z,11.67
2023-04-21T13:36:41.805Z,12.30
2023-04-21T13:39:11.791Z,13.77
2023-04-21T13:41:38.980Z,12.53
2023-04-21T13:44:06.025Z,12.60
2023-04-21T13:46:33.075Z,13.07
2023-04-21T13:48:59.988Z,10.60
2023-04-21T13:51:26.906Z,11.87
2023-04-21T13:53:53.892Z,10.30
2023-04-21T13:56:20.936Z,10.10
2023-04-21T13:58:48.512Z,9.37
2023-04-21T14:01:15.752Z,10.07
2023-04-21T14:03:42.896Z,10.17
2023-04-21T14:06:09.957Z,9.43
2023-04-21T14:08:36.923Z,9.90
2023-04-21T14:11:04.670Z,7.83
2023-04-21T14:13:37.810Z,6.27
2023-04-21T14:16:09.401Z,6.43
2023-04-21T14:18:38.398Z,5.00
2023-04-21T14:21:05.493Z,7.20
2023-04-21T14:23:32.485Z,7.60
2023-04-21T14:25:59.381Z,6.17
2023-04-21T14:28:26.619Z,6.43
2023-04-21T14:30:53.565Z,7.03
2023-04-21T14:33:20.696Z,8.53
2023-04-21T14:35:47.658Z,8.20
2023-04-21T14:38:14.592Z,9.43
2023-04-21T14:40:41.534Z,8.27
2023-04-21T14:43:11.390Z,8.20
2023-04-21T14:45:38.624Z,7.27
2023-04-21T14:48:05.771Z,8.33
2023-04-21T14:50:33.214Z,8.97
2023-04-21T14:53:00.066Z,9.83
2023-04-21T14:55:26.969Z,7.90
2023-04-21T14:57:53.905Z,7.30
2023-04-21T15:00:21.087Z,8.33
2023-04-21T15:02:48.070Z,7.33
2023-04-21T15:05:15.416Z,7.27
2023-04-21T15:07:43.081Z,8.43
2023-04-21T15:10:11.240Z,8.00
2023-04-21T15:12:39.506Z,9.37
2023-04-21T15:15:06.959Z,7.40
2023-04-21T15:17:33.797Z,7.80
2023-04-21T15:20:00.590Z,9.83
2023-04-21T15:22:28.682Z,8.40
2023-04-21T15:24:55.541Z,9.30
2023-04-21T15:27:22.366Z,9.03
2023-04-21T15:29:49.498Z,11.17
2023-04-21T15:32:16.305Z,11.73
2023-04-21T15:34:43.228Z,10.87
2023-04-21T15:37:10.119Z,11.67
2023-04-21T15:39:37.438Z,10.53
2023-04-21T15:42:05.069Z,9.27
2023-04-21T15:44:33.938Z,10.00
2023-04-21T15:47:01.070Z,10.10
2023-04-21T15:49:28.269Z,9.93
2023-04-21T15:51:56.730Z,8.90
2023-04-21T15:54:24.044Z,9.43
2023-04-21T15:56:51.375Z,8.20
2023-04-21T15:59:18.266Z,8.97
2023-04-21T16:01:45.216Z,9.83
2023-04-21T16:04:12.419Z,10.23
2023-04-21T16:06:39.724Z,9.17
2023-04-21T16:09:06.699Z,8.40
2023-04-21T16:11:34.396Z,8.03
2023-04-21T16:14:01.632Z,8.40
2023-04-21T16:16:28.698Z,7.87
2023-04-21T16:18:55.689Z,7.40
2023-04-21T16:21:22.618Z,7.83
2023-04-21T16:23:49.669Z,9.73
2023-04-21T16:26:16.676Z,8.43
2023-04-21T16:28:43.600Z,8.40
2023-04-21T16:31:10.539Z,9.40
2023-04-21T16:33:37.444Z,8.30
2023-04-21T16:36:04.438Z,7.87
2023-04-21T16:38:31.415Z,8.00
2023-04-21T16:40:58.378Z,8.13
2023-04-21T16:43:25.373Z,11.33
2023-04-21T16:45:52.366Z,6.87
2023-04-21T16:48:19.375Z,8.10
2023-04-21T16:50:46.266Z,9.50
2023-04-21T16:53:13.236Z,7.63
2023-04-21T16:55:40.297Z,7.70
2023-04-21T16:58:07.147Z,8.20
2023-04-21T17:00:35.917Z,8.77
2023-04-21T17:03:02.934Z,8.97
2023-04-21T17:05:30.095Z,7.37
2023-04-21T17:07:56.952Z,8.17
2023-04-21T17:10:24.524Z,6.40
2023-04-21T17:12:51.505Z,6.83
2023-04-21T17:15:18.577Z,6.33
2023-04-21T17:17:47.123Z,7.83
2023-04-21T17:20:14.708Z,6.33
2023-04-21T17:22:42.357Z,7.27
2023-04-21T17:25:10.039Z,6.93
2023-04-21T17:27:38.337Z,7.03
2023-04-21T17:30:06.285Z,7.10
2023-04-21T17:32:34.271Z,6.47
2023-04-21T17:35:02.140Z,8.13
2023-04-21T17:37:30.410Z,7.80
2023-04-21T17:40:00.339Z,6.20
2023-04-21T17:42:29.218Z,6.20
2023-04-21T17:44:56.114Z,5.23
2023-04-21T17:47:23.084Z,6.00
2023-04-21T17:49:50.093Z,5.10
2023-04-21T17:52:17.302Z,5.07
2023-04-21T17:54:44.487Z,4.83
2023-04-21T17:57:11.985Z,4.33
2023-04-21T17:59:39.644Z,4.17
2023-04-21T18:02:07.452Z,4.57
2023-04-21T18:04:34.875Z,5.37
2023-04-21T18:07:02.809Z,4.37
2023-04-21T18:09:30.078Z,4.33
2023-04-21T18:11:57.548Z,4.50
2023-04-21T18:14:25.152Z,4.63
2023-04-21T18:16:52.007Z,4.83
2023-04-21T18:19:18.898Z,4.13
2023-04-21T18:21:45.888Z,4.40
2023-04-21T18:24:12.900Z,3.97
2023-04-21T18:26:39.857Z,4.40
2023-04-21T18:29:06.922Z,4.87
2023-04-21T18:31:34.483Z,4.30
2023-04-21T18:34:01.533Z,4.10
2023-04-21T18:36:30.783Z,4.20
2023-04-21T18:38:59.317Z,4.00
2023-04-21T18:41:27.468Z,4.70
2023-04-21T18:43:54.910Z,4.57
2023-04-21T18:46:22.370Z,4.80
2023-04-21T18:48:49.415Z,4.90
2023-04-21T18:51:16.799Z,4.60
2023-04-21T18:53:43.820Z,6.37
2023-04-21T18:56:10.771Z,4.57
2023-04-21T18:58:37.644Z,4.80
2023-04-21T19:01:04.635Z,5.07
2023-04-21T19:03:31.763Z,4.57
2023-04-21T19:05:58.915Z,5.27
2023-04-21T19:08:40.762Z,29.83
2023-04-21T19:11:10.073Z,24.73
2023-04-21T19:13:37.238Z,21.07
2023-04-21T19:16:05.189Z,17.73
2023-04-21T19:18:32.376Z,10.27
2023-04-21T19:20:59.195Z,12.93
2023-04-21T19:23:26.026Z,11.30
2023-04-21T19:25:55.098Z,12.77
2023-04-21T19:28:22.018Z,7.10
2023-04-21T19:30:49.124Z,5.33
2023-04-21T19:33:16.318Z,4.50
2023-04-21T19:35:43.400Z,5.40
2023-04-21T19:38:10.576Z,4.87
2023-04-21T19:40:37.640Z,8.33
2023-04-21T19:43:05.008Z,9.63
2023-04-21T19:45:32.501Z,8.17
2023-04-21T19:47:59.489Z,7.33
2023-04-21T19:50:26.901Z,10.17
2023-04-21T19:52:53.769Z,12.67
2023-04-21T19:55:20.744Z,10.63
2023-04-21T19:57:47.704Z,18.20
2023-04-21T20:00:15.626Z,13.97
2023-04-21T20:02:42.861Z,14.90
2023-04-21T20:05:10.176Z,11.30
2023-04-21T20:07:38.062Z,7.83
2023-04-21T20:10:06.808Z,16.93
2023-04-21T20:12:34.336Z,11.27
2023-04-21T20:15:01.806Z,11.13
2023-04-21T20:17:29.315Z,10.53
2023-04-21T20:19:56.235Z,10.83
2023-04-21T20:22:23.093Z,6.57
2023-04-21T20:24:52.165Z,8.37
2023-04-21T20:27:19.322Z,6.37
2023-04-21T20:29:46.959Z,6.33
2023-04-21T20:32:13.976Z,5.00
2023-04-21T20:34:40.964Z,4.90
2023-04-21T20:37:07.902Z,3.70
2023-04-21T20:39:34.775Z,4.53
2023-04-21T20:42:12.586Z,4.40
2023-04-21T20:44:42.725Z,4.13
2023-04-21T20:47:11.299Z,4.30
2023-04-21T20:49:39.841Z,5.03
2023-04-21T20:52:07.098Z,4.30
2023-04-21T20:54:34.853Z,4.13
2023-04-21T20:57:02.443Z,4.13
2023-04-21T20:59:29.652Z,4.17
2023-04-21T21:01:56.687Z,3.87
2023-04-21T21:04:23.796Z,4.97
2023-04-21T21:06:50.845Z,4.53
2023-04-21T21:09:18.956Z,3.93
2023-04-21T21:11:46.192Z,6.10
2023-04-21T21:14:13.169Z,5.00
2023-04-21T21:16:40.478Z,5.67
2023-04-21T21:19:07.411Z,5.87
2023-04-21T21:21:34.347Z,5.27
2023-04-21T21:24:01.290Z,5.87
2023-04-21T21:26:28.920Z,5.87
2023-04-21T21:28:56.132Z,4.77
2023-04-21T21:31:23.285Z,5.23
2023-04-21T21:33:50.294Z,5.70
2023-04-21T21:36:17.212Z,4.73
2023-04-21T21:38:44.112Z,4.70
2023-04-21T21:41:12.299Z,4.30
2023-04-21T21:43:39.303Z,4.73
2023-04-21T21:46:06.372Z,4.67
2023-04-21T21:48:33.412Z,4.13
2023-04-21T21:51:00.494Z,4.43
2023-04-21T21:53:27.451Z,4.17
2023-04-21T21:55:54.372Z,3.67
2023-04-21T21:58:29.111Z,4.40
2023-04-21T22:00:55.947Z,4.60
2023-04-21T22:03:23.055Z,3.57
2023-04-21T22:05:50.135Z,3.47
2023-04-21T22:08:17.035Z,3.43
2023-04-21T22:10:44.616Z,4.27
2023-04-21T22:13:12.022Z,2.90
2023-04-21T22:15:38.972Z,4.10
2023-04-21T22:18:07.142Z,3.10
2023-04-21T22:20:34.263Z,3.07
2023-04-21T22:23:01.156Z,4.70
2023-04-21T22:25:28.062Z,3.70
2023-04-21T22:27:58.679Z,2.90
2023-04-21T22:30:25.977Z,2.97
2023-04-21T22:32:53.029Z,3.10
2023-04-21T22:35:20.143Z,2.47
2023-04-21T22:37:47.108Z,2.73
2023-04-21T22:40:14.069Z,3.03
2023-04-21T22:42:41.006Z,3.03
2023-04-21T22:45:08.382Z,3.27
2023-04-21T22:47:35.454Z,2.80
2023-04-21T22:50:02.377Z,3.07
2023-04-21T22:52:29.299Z,3.43
2023-04-21T22:54:56.230Z,3.93
2023-04-21T22:57:23.283Z,7.87
2023-04-21T22:59:50.337Z,4.03
2023-04-21T23:02:17.410Z,3.80
2023-04-21T23:04:44.395Z,3.87
2023-04-21T23:07:11.270Z,7.93
2023-04-21T23:09:38.354Z,7.63
2023-04-21T23:12:06.267Z,6.73
2023-04-21T23:14:33.270Z,8.20
2023-04-21T23:17:00.397Z,5.37
2023-04-21T23:19:27.365Z,5.10
2023-04-21T23:21:54.297Z,4.27
2023-04-21T23:24:21.235Z,5.03
2023-04-21T23:26:48.120Z,6.17
2023-04-21T23:29:15.131Z,3.83
2023-04-21T23:31:42.109Z,7.33
2023-04-21T23:34:09.065Z,3.07
2023-04-21T23:36:35.952Z,4.63
2023-04-21T23:39:03.016Z,4.30
2023-04-21T23:41:29.886Z,5.00
2023-04-21T23:43:56.834Z,4.87
2023-04-21T23:46:23.774Z,5.33
2023-04-21T23:48:50.669Z,9.17
2023-04-21T23:51:17.625Z,3.60
2023-04-21T23:53:44.591Z,4.80
2023-04-21T23:56:11.518Z,5.63
2023-04-21T23:58:38.362Z,5.80
